createdAt,value
2019-02-24T00:01:25.423Z,5.90
2019-02-24T00:03:55.539Z,5.53
2019-02-24T00:06:25.691Z,6.30
2019-02-24T00:08:55.802Z,5.83
2019-02-24T00:11:25.924Z,5.57
2019-02-24T00:13:55.948Z,6.33
2019-02-24T00:16:26.074Z,5.93
2019-02-24T00:18:56.261Z,5.50
2019-02-24T00:21:26.317Z,5.80
2019-02-24T00:23:56.423Z,6.33
2019-02-24T00:26:26.472Z,5.90
2019-02-24T00:28:56.506Z,6.03
2019-02-24T00:31:26.572Z,6.03
2019-02-24T00:33:56.643Z,6.10
2019-02-24T00:36:26.714Z,5.70
2019-02-24T00:38:56.795Z,6.40
2019-02-24T00:41:26.839Z,6.87
2019-02-24T00:43:56.909Z,5.63
2019-02-24T00:46:26.996Z,5.63
2019-02-24T00:48:57.223Z,6.23
2019-02-24T00:51:27.253Z,5.73
2019-02-24T00:53:57.324Z,6.57
2019-02-24T00:56:27.358Z,6.27
2019-02-24T00:58:57.411Z,5.73
2019-02-24T01:01:27.779Z,5.87
2019-02-24T01:03:57.856Z,6.07
2019-02-24T01:06:27.973Z,5.57
2019-02-24T01:08:58.123Z,5.93
2019-02-24T01:11:28.305Z,6.07
2019-02-24T01:13:58.633Z,6.73
2019-02-24T01:16:30.369Z,6.63
2019-02-24T01:19:02.275Z,6.50
2019-02-24T01:21:32.660Z,6.77
2019-02-24T01:24:03.099Z,6.33
2019-02-24T01:26:33.198Z,4.93
2019-02-24T01:29:03.342Z,6.13
2019-02-24T01:31:33.377Z,7.07
2019-02-24T01:34:03.499Z,6.23
2019-02-24T01:36:33.483Z,6.27
2019-02-24T01:39:03.561Z,6.83
2019-02-24T01:41:33.683Z,5.97
2019-02-24T01:44:03.762Z,5.70
2019-02-24T01:46:33.885Z,6.60
2019-02-24T01:49:03.925Z,7.53
2019-02-24T01:51:33.988Z,6.90
2019-02-24T01:54:03.993Z,6.43
2019-02-24T01:56:34.072Z,7.27
2019-02-24T01:59:04.165Z,6.00
2019-02-24T02:01:34.301Z,7.40
2019-02-24T02:04:04.393Z,6.53
2019-02-24T02:06:34.435Z,6.63
2019-02-24T02:09:05.049Z,6.50
2019-02-24T02:11:35.099Z,6.27
2019-02-24T02:14:05.187Z,7.67
2019-02-24T02:16:35.273Z,6.57
2019-02-24T02:19:05.635Z,7.40
2019-02-24T02:21:35.748Z,7.33
2019-02-24T02:24:05.767Z,6.50
2019-02-24T02:26:35.852Z,6.93
2019-02-24T02:29:05.859Z,6.87
2019-02-24T02:31:35.869Z,6.97
2019-02-24T02:34:05.855Z,7.33
2019-02-24T02:36:35.866Z,6.90
2019-02-24T02:39:06.189Z,7.37
2019-02-24T02:41:36.221Z,6.50
2019-02-24T02:44:06.258Z,6.47
2019-02-24T02:46:36.402Z,6.07
2019-02-24T02:49:06.527Z,6.83
2019-02-24T02:51:36.631Z,7.00
2019-02-24T02:54:06.747Z,5.80
2019-02-24T02:56:36.757Z,6.47
2019-02-24T02:59:06.861Z,6.10
2019-02-24T03:01:36.909Z,6.60
2019-02-24T03:04:07.020Z,5.67
2019-02-24T03:06:58.816Z,5.87
2019-02-24T03:09:28.931Z,5.70
2019-02-24T03:11:58.970Z,5.93
2019-02-24T03:14:29.077Z,6.60
2019-02-24T03:16:59.145Z,6.13
2019-02-24T03:19:29.169Z,6.47
2019-02-24T03:21:59.206Z,6.73
2019-02-24T03:24:29.236Z,5.67
2019-02-24T03:26:59.313Z,6.47
2019-02-24T03:29:29.345Z,6.77
2019-02-24T03:31:59.357Z,6.83
2019-02-24T03:34:29.411Z,6.37
2019-02-24T03:36:59.419Z,6.40
2019-02-24T03:39:29.491Z,6.50
2019-02-24T03:41:59.555Z,6.67
2019-02-24T03:44:29.898Z,5.67
2019-02-24T03:46:59.998Z,6.13
2019-02-24T03:49:30.119Z,5.97
2019-02-24T03:52:00.236Z,6.17
2019-02-24T03:54:30.309Z,6.50
2019-02-24T03:57:00.386Z,5.97
2019-02-24T03:59:30.455Z,6.23
2019-02-24T04:02:00.580Z,6.23
2019-02-24T04:04:30.755Z,6.67
2019-02-24T04:07:02.263Z,6.70
2019-02-24T04:09:32.308Z,6.37
2019-02-24T04:12:02.655Z,5.90
2019-02-24T04:14:33.063Z,6.13
2019-02-24T04:17:03.105Z,7.27
2019-02-24T04:19:33.195Z,6.57
2019-02-24T04:22:03.235Z,6.23
2019-02-24T04:24:33.274Z,6.07
2019-02-24T04:27:03.272Z,6.87
2019-02-24T04:29:33.277Z,7.47
2019-02-24T04:32:06.281Z,5.90
2019-02-24T04:34:36.314Z,6.53
2019-02-24T04:37:06.442Z,5.93
2019-02-24T04:39:36.518Z,5.97
2019-02-24T04:42:06.562Z,5.50
2019-02-24T04:44:37.126Z,5.90
2019-02-24T04:47:07.156Z,6.13
2019-02-24T04:49:37.163Z,7.33
2019-02-24T04:52:07.202Z,5.80
2019-02-24T04:54:37.214Z,6.43
2019-02-24T04:57:07.193Z,6.23
2019-02-24T04:59:37.207Z,6.50
2019-02-24T05:02:07.239Z,5.73
2019-02-24T05:04:37.334Z,6.30
2019-02-24T05:07:07.343Z,6.47
2019-02-24T05:09:37.354Z,6.83
2019-02-24T05:12:07.353Z,6.47
2019-02-24T05:14:37.371Z,6.27
2019-02-24T05:17:07.379Z,5.93
2019-02-24T05:19:37.406Z,6.90
2019-02-24T05:22:07.423Z,5.97
2019-02-24T05:24:37.457Z,6.27
2019-02-24T05:27:07.457Z,7.10
2019-02-24T05:29:45.346Z,7.17
2019-02-24T05:32:09.195Z,6.70
2019-02-24T05:34:39.201Z,6.07
2019-02-24T05:37:09.237Z,6.43
2019-02-24T05:39:39.263Z,7.50
2019-02-24T05:42:09.334Z,5.87
2019-02-24T05:44:39.326Z,6.40
2019-02-24T05:47:09.356Z,5.97
2019-02-24T05:49:39.382Z,6.00
2019-02-24T05:52:09.405Z,6.67
2019-02-24T05:54:39.429Z,7.50
2019-02-24T05:57:09.458Z,7.43
2019-02-24T05:59:39.439Z,6.40
2019-02-24T06:02:10.692Z,7.03
2019-02-24T06:04:40.677Z,7.33
2019-02-24T06:07:10.707Z,7.27
2019-02-24T06:09:40.722Z,7.17
2019-02-24T06:12:10.763Z,6.17
2019-02-24T06:14:40.757Z,6.60
2019-02-24T06:17:10.868Z,7.23
2019-02-24T06:19:40.878Z,6.00
2019-02-24T06:22:10.887Z,7.80
2019-02-24T06:24:40.887Z,6.23
2019-02-24T06:27:10.916Z,7.30
2019-02-24T06:29:40.907Z,7.03
2019-02-24T06:32:10.914Z,6.17
2019-02-24T06:34:40.909Z,6.63
2019-02-24T06:37:10.939Z,6.43
2019-02-24T06:39:40.946Z,7.13
2019-02-24T06:42:10.989Z,6.40
2019-02-24T06:44:46.034Z,6.60
2019-02-24T06:47:16.126Z,6.10
2019-02-24T06:49:46.114Z,6.50
2019-02-24T06:52:18.260Z,7.17
2019-02-24T06:54:48.358Z,6.40
2019-02-24T06:57:18.391Z,7.03
2019-02-24T06:59:51.597Z,7.60
2019-02-24T07:02:21.970Z,7.40
2019-02-24T07:04:52.020Z,6.30
2019-02-24T07:07:22.055Z,6.37
2019-02-24T07:09:52.101Z,7.43
2019-02-24T07:12:22.125Z,7.00
2019-02-24T07:14:52.127Z,6.00
2019-02-24T07:17:22.154Z,6.30
2019-02-24T07:19:52.173Z,6.07
2019-02-24T07:22:22.197Z,5.97
2019-02-24T07:24:52.239Z,6.63
2019-02-24T07:27:22.277Z,7.40
2019-02-24T07:29:52.323Z,7.00
2019-02-24T07:32:22.343Z,6.27
2019-02-24T07:34:52.375Z,5.73
2019-02-24T07:37:22.464Z,7.10
2019-02-24T07:39:52.497Z,7.00
2019-02-24T07:42:22.517Z,7.67
2019-02-24T07:44:52.556Z,7.23
2019-02-24T07:47:22.563Z,6.27
2019-02-24T07:49:52.619Z,7.13
2019-02-24T07:52:22.646Z,6.83
2019-02-24T07:54:52.791Z,6.80
2019-02-24T07:57:22.823Z,7.07
2019-02-24T07:59:52.911Z,7.10
2019-02-24T08:02:22.945Z,8.30
2019-02-24T08:04:53.087Z,7.20
2019-02-24T08:07:24.300Z,7.07
2019-02-24T08:09:54.448Z,6.10
2019-02-24T08:12:24.470Z,6.27
2019-02-24T08:14:54.615Z,5.90
2019-02-24T08:17:24.742Z,6.17
2019-02-24T08:20:00.721Z,6.37
2019-02-24T08:22:30.911Z,5.93
2019-02-24T08:25:02.707Z,5.73
2019-02-24T08:27:32.819Z,5.73
2019-02-24T08:30:03.000Z,5.90
2019-02-24T08:32:33.160Z,6.43
2019-02-24T08:35:03.317Z,5.47
2019-02-24T08:37:33.457Z,5.67
2019-02-24T08:40:06.495Z,5.73
2019-02-24T08:42:36.607Z,5.50
2019-02-24T08:45:07.436Z,5.70
2019-02-24T08:47:37.531Z,7.03
2019-02-24T08:50:08.702Z,5.93
2019-02-24T08:52:38.752Z,5.53
2019-02-24T08:55:08.772Z,5.60
2019-02-24T08:57:38.830Z,5.17
2019-02-24T09:00:10.128Z,6.37
2019-02-24T09:02:40.241Z,5.30
2019-02-24T09:05:10.334Z,5.33
2019-02-24T09:07:40.636Z,5.40
2019-02-24T09:10:10.786Z,5.30
2019-02-24T09:12:40.856Z,5.30
2019-02-24T09:15:11.081Z,5.77
2019-02-24T09:17:41.101Z,5.63
2019-02-24T09:20:11.198Z,5.50
2019-02-24T09:22:41.362Z,5.30
2019-02-24T09:25:11.520Z,4.60
2019-02-24T09:27:41.624Z,5.80
2019-02-24T09:30:11.714Z,5.50
2019-02-24T09:32:41.816Z,5.40
2019-02-24T09:35:11.884Z,4.33
2019-02-24T09:37:41.916Z,5.33
2019-02-24T09:40:12.187Z,5.07
2019-02-24T09:42:42.228Z,4.63
2019-02-24T09:45:12.271Z,4.87
2019-02-24T09:47:46.791Z,6.10
2019-02-24T09:50:14.215Z,4.93
2019-02-24T09:52:44.331Z,5.40
2019-02-24T09:55:14.498Z,5.23
2019-02-24T09:57:44.574Z,5.20
2019-02-24T10:00:14.650Z,5.33
2019-02-24T10:02:44.822Z,5.30
2019-02-24T10:05:14.869Z,5.47
2019-02-24T10:07:45.931Z,5.13
2019-02-24T10:10:15.929Z,6.00
2019-02-24T10:12:46.401Z,5.10
2019-02-24T10:15:16.488Z,5.50
2019-02-24T10:17:46.612Z,5.53
2019-02-24T10:20:16.698Z,4.57
2019-02-24T10:22:46.912Z,5.03
2019-02-24T10:25:16.957Z,5.07
2019-02-24T10:27:47.037Z,5.57
2019-02-24T10:30:17.245Z,4.23
2019-02-24T10:32:50.333Z,6.13
2019-02-24T10:35:20.524Z,4.93
2019-02-24T10:37:50.569Z,4.47
2019-02-24T10:40:20.653Z,4.83
2019-02-24T10:42:50.757Z,5.30
2019-02-24T10:45:20.877Z,5.70
2019-02-24T10:47:51.019Z,4.50
2019-02-24T10:50:21.274Z,4.97
2019-02-24T10:52:51.431Z,4.77
2019-02-24T10:55:21.572Z,5.40
2019-02-24T10:57:51.680Z,5.67
2019-02-24T11:00:22.752Z,4.40
2019-02-24T11:02:52.857Z,4.73
2019-02-24T11:05:22.927Z,5.00
2019-02-24T11:07:53.011Z,4.60
2019-02-24T11:10:23.099Z,4.90
2019-02-24T11:12:53.192Z,4.50
2019-02-24T11:15:23.329Z,4.93
2019-02-24T11:17:53.405Z,4.20
2019-02-24T11:20:23.529Z,5.07
2019-02-24T11:22:53.559Z,5.13
2019-02-24T11:25:24.695Z,4.50
2019-02-24T11:27:54.887Z,4.43
2019-02-24T11:30:25.020Z,4.67
2019-02-24T11:32:55.154Z,5.53
2019-02-24T11:35:25.293Z,4.83
2019-02-24T11:37:55.334Z,6.17
2019-02-24T11:40:25.517Z,5.00
2019-02-24T11:42:55.589Z,5.27
2019-02-24T11:45:25.746Z,5.17
2019-02-24T11:47:55.814Z,4.90
2019-02-24T11:50:25.980Z,5.47
2019-02-24T11:52:59.493Z,5.23
2019-02-24T11:55:29.603Z,5.23
2019-02-24T11:57:59.695Z,7.53
2019-02-24T12:00:29.794Z,6.20
2019-02-24T12:02:59.935Z,5.43
2019-02-24T12:05:30.089Z,4.77
2019-02-24T12:08:00.231Z,5.43
2019-02-24T12:10:30.335Z,5.00
2019-02-24T12:13:00.386Z,5.60
2019-02-24T12:15:30.418Z,4.87
2019-02-24T12:18:00.599Z,10.17
2019-02-24T12:20:30.638Z,4.93
2019-02-24T12:23:00.798Z,5.83
2019-02-24T12:25:31.633Z,4.93
2019-02-24T12:28:01.741Z,4.40
2019-02-24T12:30:31.755Z,4.63
2019-02-24T12:33:01.849Z,5.80
2019-02-24T12:35:31.854Z,4.47
2019-02-24T12:38:01.973Z,6.53
2019-02-24T12:40:41.219Z,5.27
2019-02-24T12:43:11.294Z,4.77
2019-02-24T12:45:41.339Z,4.97
2019-02-24T12:48:11.470Z,4.40
2019-02-24T12:50:41.501Z,4.97
2019-02-24T12:53:11.561Z,4.43
2019-02-24T12:55:41.715Z,4.60
2019-02-24T12:58:11.791Z,4.93
2019-02-24T13:00:42.550Z,4.90
2019-02-24T13:03:12.639Z,4.30
2019-02-24T13:05:42.694Z,4.60
2019-02-24T13:08:12.740Z,4.50
2019-02-24T13:10:42.833Z,4.53
2019-02-24T13:13:31.929Z,4.40
2019-02-24T13:16:01.969Z,4.40
2019-02-24T13:18:31.993Z,5.60
2019-02-24T13:21:02.068Z,5.80
2019-02-24T13:23:32.181Z,4.23
2019-02-24T13:26:02.310Z,4.53
2019-02-24T13:28:32.353Z,4.23
2019-02-24T13:31:02.412Z,5.13
2019-02-24T13:33:32.437Z,4.07
2019-02-24T13:36:02.486Z,4.97
2019-02-24T13:38:32.536Z,5.17
2019-02-24T13:41:02.587Z,5.00
2019-02-24T13:43:32.645Z,5.07
2019-02-24T13:46:02.658Z,4.77
2019-02-24T13:48:32.654Z,5.33
2019-02-24T13:51:02.722Z,4.60
2019-02-24T13:53:32.729Z,4.93
2019-02-24T13:56:02.778Z,5.23
2019-02-24T13:58:32.794Z,5.40
2019-02-24T14:01:02.833Z,5.93
2019-02-24T14:03:32.937Z,5.03
2019-02-24T14:06:02.991Z,4.80
2019-02-24T14:08:33.003Z,5.80
2019-02-24T14:11:03.540Z,5.00
2019-02-24T14:13:33.565Z,4.97
2019-02-24T14:16:03.600Z,5.40
2019-02-24T14:18:33.615Z,5.37
2019-02-24T14:21:03.646Z,5.60
2019-02-24T14:23:33.665Z,4.70
2019-02-24T14:26:03.682Z,5.00
2019-02-24T14:28:33.687Z,5.27
2019-02-24T14:31:03.726Z,5.67
2019-02-24T14:33:33.795Z,4.97
2019-02-24T14:36:03.811Z,4.53
2019-02-24T14:38:33.806Z,4.70
2019-02-24T14:41:03.830Z,4.97
2019-02-24T14:43:33.814Z,5.80
2019-02-24T14:46:03.851Z,3.80
2019-02-24T14:48:33.867Z,4.17
2019-02-24T14:51:03.907Z,4.87
2019-02-24T14:53:33.900Z,4.90
2019-02-24T14:56:03.944Z,4.60
2019-02-24T14:58:33.904Z,4.17
2019-02-24T15:01:03.934Z,4.63
2019-02-24T15:03:34.042Z,4.37
2019-02-24T15:06:04.100Z,4.43
2019-02-24T15:08:34.090Z,4.53
2019-02-24T15:11:04.110Z,4.73
2019-02-24T15:13:34.122Z,4.30
2019-02-24T15:16:04.126Z,4.30
2019-02-24T15:18:34.226Z,3.87
2019-02-24T15:21:04.231Z,4.80
2019-02-24T15:23:34.264Z,4.17
2019-02-24T15:26:04.279Z,5.37
2019-02-24T15:28:34.410Z,4.13
2019-02-24T15:31:04.463Z,4.17
2019-02-24T15:33:34.486Z,4.67
2019-02-24T15:36:04.490Z,4.50
2019-02-24T15:38:34.550Z,3.90
2019-02-24T15:41:04.556Z,4.47
2019-02-24T15:43:34.608Z,4.00
2019-02-24T15:46:04.674Z,3.87
2019-02-24T15:48:34.884Z,4.23
2019-02-24T15:51:05.000Z,3.93
2019-02-24T15:53:35.032Z,3.43
2019-02-24T15:56:05.214Z,4.77
2019-02-24T15:58:35.273Z,3.77
2019-02-24T16:01:06.271Z,3.60
2019-02-24T16:03:36.401Z,3.90
2019-02-24T16:06:06.669Z,3.90
2019-02-24T16:08:36.820Z,3.90
2019-02-24T16:11:06.902Z,5.13
2019-02-24T16:13:37.024Z,4.00
2019-02-24T16:16:07.064Z,4.43
2019-02-24T16:18:37.108Z,4.00
2019-02-24T16:21:07.180Z,4.77
2019-02-24T16:23:37.232Z,4.57
2019-02-24T16:26:07.322Z,4.17
2019-02-24T16:28:37.662Z,3.40
2019-02-24T16:31:07.717Z,3.53
2019-02-24T16:33:37.756Z,3.73
2019-02-24T16:36:07.756Z,4.67
2019-02-24T16:38:37.805Z,3.93
2019-02-24T16:41:07.837Z,6.90
2019-02-24T16:43:37.901Z,5.73
2019-02-24T16:46:07.924Z,6.37
2019-02-24T16:48:38.080Z,6.57
2019-02-24T16:51:08.105Z,6.43
2019-02-24T16:53:38.345Z,6.10
2019-02-24T16:56:08.740Z,7.30
2019-02-24T16:58:38.851Z,8.77
2019-02-24T17:01:08.977Z,8.03
2019-02-24T17:03:39.047Z,6.97
2019-02-24T17:06:09.066Z,6.30
2019-02-24T17:08:39.249Z,7.80
2019-02-24T17:11:09.376Z,7.33
2019-02-24T17:13:39.512Z,7.70
2019-02-24T17:16:09.572Z,5.87
2019-02-24T17:18:39.713Z,6.87
2019-02-24T17:21:09.768Z,6.63
2019-02-24T17:23:39.897Z,7.10
2019-02-24T17:26:09.896Z,6.63
2019-02-24T17:28:39.957Z,7.40
2019-02-24T17:31:10.013Z,9.50
2019-02-24T17:33:40.126Z,9.13
2019-02-24T17:36:10.182Z,11.30
2019-02-24T17:38:40.302Z,10.50
2019-02-24T17:41:10.366Z,9.03
2019-02-24T17:43:40.527Z,10.67
2019-02-24T17:46:10.583Z,11.67
2019-02-24T17:48:40.681Z,15.50
2019-02-24T17:51:10.812Z,10.10
2019-02-24T17:53:42.769Z,10.93
2019-02-24T17:56:12.621Z,9.10
2019-02-24T17:58:42.648Z,6.77
2019-02-24T18:01:12.789Z,7.67
2019-02-24T18:03:42.846Z,7.07
2019-02-24T18:06:12.887Z,7.97
2019-02-24T18:08:42.937Z,7.37
2019-02-24T18:11:12.971Z,8.67
2019-02-24T18:13:42.959Z,12.27
2019-02-24T18:16:13.111Z,16.37
2019-02-24T18:18:43.151Z,19.67
2019-02-24T18:21:13.196Z,16.77
2019-02-24T18:23:43.236Z,18.50
2019-02-24T18:26:13.467Z,18.57
2019-02-24T18:28:43.515Z,20.30
2019-02-24T18:31:13.578Z,13.03
2019-02-24T18:33:48.408Z,13.77
2019-02-24T18:36:15.473Z,14.70
2019-02-24T18:38:45.691Z,12.70
2019-02-24T18:41:15.755Z,9.60
2019-02-24T18:43:45.844Z,9.30
2019-02-24T18:46:15.929Z,8.10
2019-02-24T18:48:45.981Z,7.57
2019-02-24T18:51:16.035Z,7.70
2019-02-24T18:53:46.068Z,9.07
2019-02-24T18:56:18.975Z,8.87
2019-02-24T18:58:49.019Z,11.57
2019-02-24T19:01:19.077Z,9.43
2019-02-24T19:03:57.394Z,8.80
2019-02-24T19:06:20.901Z,9.33
2019-02-24T19:08:50.953Z,9.30
2019-02-24T19:11:24.423Z,9.93
2019-02-24T19:13:54.473Z,9.87
2019-02-24T19:16:24.555Z,9.07
2019-02-24T19:18:54.618Z,10.17
2019-02-24T19:21:24.697Z,11.10
2019-02-24T19:23:54.808Z,11.80
2019-02-24T19:26:24.848Z,10.60
2019-02-24T19:28:55.002Z,10.90
2019-02-24T19:31:25.072Z,9.67
2019-02-24T19:33:55.174Z,9.63
2019-02-24T19:36:25.222Z,9.00
2019-02-24T19:38:55.329Z,13.10
2019-02-24T19:41:25.331Z,12.20
2019-02-24T19:43:55.367Z,14.73
2019-02-24T19:46:25.403Z,11.60
2019-02-24T19:48:55.485Z,10.80
2019-02-24T19:51:25.543Z,8.37
2019-02-24T19:53:55.685Z,8.43
2019-02-24T19:56:25.720Z,6.67
2019-02-24T19:58:55.790Z,5.43
2019-02-24T20:01:25.850Z,4.70
2019-02-24T20:03:55.972Z,4.93
2019-02-24T20:06:26.070Z,4.07
2019-02-24T20:08:56.114Z,4.33
2019-02-24T20:11:26.154Z,4.73
2019-02-24T20:13:56.166Z,4.40
2019-02-24T20:16:26.196Z,4.90
2019-02-24T20:18:56.271Z,4.13
2019-02-24T20:21:26.312Z,4.80
2019-02-24T20:23:56.360Z,3.97
2019-02-24T20:26:26.366Z,4.27
2019-02-24T20:28:56.452Z,5.33
2019-02-24T20:31:26.472Z,5.17
2019-02-24T20:33:56.485Z,4.70
2019-02-24T20:36:26.548Z,5.10
2019-02-24T20:38:56.604Z,4.20
2019-02-24T20:41:26.683Z,4.80
2019-02-24T20:43:56.710Z,4.80
2019-02-24T20:46:26.778Z,9.07
2019-02-24T20:48:56.848Z,10.07
2019-02-24T20:51:26.903Z,6.57
2019-02-24T20:53:56.934Z,5.20
2019-02-24T20:56:26.997Z,4.70
2019-02-24T20:58:57.036Z,4.63
2019-02-24T21:01:27.073Z,3.90
2019-02-24T21:03:57.138Z,4.60
2019-02-24T21:06:27.172Z,4.67
2019-02-24T21:08:57.373Z,4.37
2019-02-24T21:11:27.622Z,5.27
2019-02-24T21:13:57.739Z,4.77
2019-02-24T21:16:27.820Z,5.30
2019-02-24T21:18:57.820Z,4.60
2019-02-24T21:21:27.871Z,4.33
2019-02-24T21:23:57.896Z,3.67
2019-02-24T21:26:27.958Z,3.97
2019-02-24T21:28:58.030Z,3.47
2019-02-24T21:31:28.089Z,3.43
2019-02-24T21:33:58.191Z,3.20
2019-02-24T21:36:28.304Z,3.97
2019-02-24T21:38:58.408Z,3.07
2019-02-24T21:41:29.851Z,4.37
2019-02-24T21:43:59.950Z,4.33
2019-02-24T21:46:29.998Z,3.97
2019-02-24T21:49:00.026Z,4.13
2019-02-24T21:51:30.143Z,4.37
2019-02-24T21:54:00.259Z,4.40
2019-02-24T21:56:30.266Z,4.03
2019-02-24T21:59:00.332Z,3.27
2019-02-24T22:01:30.346Z,3.90
2019-02-24T22:04:00.474Z,4.00
2019-02-24T22:06:30.479Z,3.33
2019-02-24T22:09:00.528Z,4.00
2019-02-24T22:11:30.549Z,3.53
2019-02-24T22:14:00.622Z,4.10
2019-02-24T22:16:30.624Z,3.63
2019-02-24T22:19:00.773Z,4.00
2019-02-24T22:21:30.776Z,4.53
2019-02-24T22:24:02.256Z,4.67
2019-02-24T22:26:32.252Z,4.20
2019-02-24T22:29:02.299Z,4.73
2019-02-24T22:31:32.293Z,4.40
2019-02-24T22:34:06.493Z,4.50
2019-02-24T22:36:36.589Z,4.80
2019-02-24T22:39:08.166Z,7.63
2019-02-24T22:41:38.263Z,7.70
2019-02-24T22:44:09.124Z,7.83
2019-02-24T22:46:39.206Z,5.50
2019-02-24T22:49:09.403Z,5.50
2019-02-24T22:51:39.453Z,5.33
2019-02-24T22:54:09.527Z,4.70
2019-02-24T22:56:39.599Z,5.03
2019-02-24T22:59:09.682Z,5.80
2019-02-24T23:01:40.492Z,5.43
2019-02-24T23:04:12.113Z,4.83
2019-02-24T23:06:42.214Z,4.97
2019-02-24T23:09:17.201Z,5.00
2019-02-24T23:11:47.293Z,4.97
2019-02-24T23:14:17.317Z,5.33
2019-02-24T23:16:47.402Z,5.17
2019-02-24T23:19:17.478Z,5.10
2019-02-24T23:21:47.516Z,5.50
2019-02-24T23:24:17.559Z,5.10
2019-02-24T23:26:47.664Z,5.63
2019-02-24T23:29:17.650Z,6.27
2019-02-24T23:31:48.140Z,5.60
2019-02-24T23:34:18.204Z,5.43
2019-02-24T23:36:48.245Z,4.50
2019-02-24T23:39:18.510Z,5.47
2019-02-24T23:41:48.611Z,5.53
2019-02-24T23:44:18.696Z,4.87
2019-02-24T23:46:48.731Z,4.67
2019-02-24T23:49:18.888Z,4.53
2019-02-24T23:51:48.976Z,4.47
2019-02-24T23:54:19.051Z,4.17
2019-02-24T23:56:49.142Z,3.47
2019-02-24T23:59:19.199Z,4.03
